PANT METAR and TAF weather

Enter ICAO airport designator
Station Type Date Time Source
PANT METAR 2019/02/21 14:53 UTC NOAA

PANT 211453Z AUTO 12008KT 10SM BKN008 OVC015 03/02 A3004 RMK RAB02E12UPB12E29B38E51 CIG 006V013 SLP175 P0000 60002 T00280022 58031 TSNO VIA AUTODIAL


Station Type Date Time Source
PANT Decoded METAR 2019/02/21 14:53 UTC NOAA

ANNETTE ISLAND AIRPORT, AK, United States (PANT) 55-02N 131-35W 34M
Feb 21, 2019 - 09:53 AM EST / 2019.02.21 1453 UTC
Wind: from the ESE (120 degrees) at 9 MPH (8 KT):0
Visibility: 10 mile(s):0
Sky conditions: overcast
Precipitation last hour: A trace
Temperature: 37.0 F (2.8 C)
Dew Point: 36.0 F (2.2 C)
Relative Humidity: 95%
Pressure (altimeter): 30.04 in. Hg (1017 hPa)
Pressure tendency: 0.09 inches (3.1 hPa) lower than three hours ago
ob: PANT 211453Z AUTO 12008KT 10SM BKN008 OVC015 03/02 A3004 RMK RAB02E12UPB12E29B38E51 CIG 006V013 SLP175 P0000 60002 T00280022 58031 TSNO VIA AUTODIAL
cycle: 15

Station Type Date Time Source
PANT TAF UTC NOAA

Error!


Example: see airport list